Time;durP1;ratioP1;P1;durP2;ratioP2;P2;SDS_P1;SDS_P2;PMS_P1;PMS_P2;Temp;Humidity;BMP_temperature;BMP_pressure;BME280_temperature;BME280_humidity;BME280_pressure;Samples;Min_cycle;Max_cycle;Signal;HPM_P1;HPM_P2
2021/07/14 06:41:04;;;;;;;;;;;;;;;;;;4929713;29;19935;-92
2021/07/14 06:43:45;;;;;;;;;;;;;;;;;;4899535;29;19934;-90
2021/07/14 06:46:16;;;;;;;;;;;;;;;;;;4886259;29;19961;-90
2021/07/14 06:48:45;;;;;;;;;;;;;;;;;;4903585;29;19931;-90
2021/07/14 06:51:14;;;;;;;;;;;;;;;;;;4888390;29;19942;-90
2021/07/14 06:53:44;;;;;;;;;;;;;;;;;;4890679;29;20386;-87
2021/07/14 06:56:13;;;;;;;;;;;;;;;;;;4893716;29;19934;-90
2021/07/14 06:58:42;;;;;;;;;;;;;;;;;;4908818;29;19933;-91
2021/07/14 07:01:11;;;;;;;;;;;;;;;;;;4885650;29;20394;-89
2021/07/14 07:03:41;;;;;;;;;;;;;;;;;;4908274;29;19927;-92
2021/07/14 07:06:15;;;;;;;;;;;;;;;;;;4896716;29;19958;-91
2021/07/14 07:08:51;;;;;;;;;;;;;;;;;;4906332;29;19942;-91
2021/07/14 07:11:24;;;;;;;;;;;;;;;;;;4890440;29;20249;-90
2021/07/14 07:14:03;;;;;;;;;;;;;;;;;;4911022;29;20005;-92
2021/07/14 07:16:51;;;;;;;;;;;;;;;;;;4893476;29;20009;-90
2021/07/14 07:19:27;;;;;;;;;;;;;;;;;;4894960;29;20283;-92
2021/07/14 07:22:00;;;;;;;;;;;;;;;;;;4888985;29;19931;-92
2021/07/14 07:24:35;;;;;;;;;;;;;;;;;;4891076;29;19931;-91
2021/07/14 07:27:16;;;;;;;;;;;;;;;;;;4925441;29;19927;-92
2021/07/14 07:30:19;;;;;;;;;;;;;;;;;;4892052;29;19932;-92
2021/07/14 07:33:05;;;;;;;;;;;;;;;;;;4911683;29;19915;-92
2021/07/14 07:35:46;;;;;;;;;;;;;;;;;;4924595;29;19921;-93
2021/07/14 07:41:41;;;;;;;;;;;;;;;;;;4934310;29;19926;-92
2021/07/14 07:44:40;;;;;;;;;;;;;;;;;;4926718;29;19933;-91
2021/07/14 07:47:56;;;;;;;;;;;;;;;;;;4913815;29;19927;-92
2021/07/14 07:50:55;;;;;;;;;;;;;;;;;;4911612;29;19931;-93
2021/07/14 07:53:27;;;;;;;;;;;;;;;;;;4892231;29;19947;-92
2021/07/14 08:00:45;;;;;;;;;;;;;;;;;;4919005;29;20408;-93
2021/07/14 08:04:07;;;;;;;;;;;;;;;;;;4896629;29;19928;-94
2021/07/14 08:06:45;;;;;;;;;;;;;;;;;;4898311;29;19927;-93
2021/07/14 08:09:32;;;;;;;;;;;;;;;;;;4899492;29;19927;-92
2021/07/14 08:12:21;;;;;;;;;;;;;;;;;;4898961;29;19927;-93
2021/07/14 08:15:22;;;;;;;;;;;;;;;;;;4909121;29;19935;-93
2021/07/14 08:17:52;;;;;;;;;;;;;;;;;;4895723;29;20021;-93
2021/07/14 08:20:23;;;;;;;;;;;;;;;;;;4896929;29;19938;-92
2021/07/14 08:22:51;;;;;;;;;;;;;;;;;;4900139;29;19935;-92
2021/07/14 08:25:20;;;;;;;;;;;;;;;;;;4891479;29;20306;-92
2021/07/14 08:27:48;;;;;;;;;;;;;;;;;;4896470;29;19927;-93
2021/07/14 08:30:17;;;;;;;;;;;;;;;;;;4896712;29;20397;-92
2021/07/14 08:32:46;;;;;;;;;;;;;;;;;;4894782;29;19935;-92
2021/07/14 08:35:15;;;;;;;;;;;;;;;;;;4885240;29;19931;-92
2021/07/14 08:37:48;;;;;;;;;;;;;;;;;;4890794;29;19927;-93
2021/07/14 08:40:18;;;;;;;;;;;;;;;;;;4885358;29;20413;-91
2021/07/14 08:42:48;;;;;;;;;;;;;;;;;;4890267;29;19936;-91
2021/07/14 08:45:19;;;;;;;;;;;;;;;;;;4892667;29;19958;-93
2021/07/14 08:47:47;;;;;;;;;;;;;;;;;;4892876;29;20403;-93
2021/07/14 08:50:16;;;;;;;;;;;;;;;;;;4887603;29;19934;-91
2021/07/14 08:52:47;;;;;;;;;;;;;;;;;;4894505;29;19935;-92
2021/07/14 08:55:18;;;;;;;;;;;;;;;;;;4902762;29;20139;-92
2021/07/14 08:57:46;;;;;;;;;;;;;;;;;;4888942;29;19934;-92
2021/07/14 09:00:17;;;;;;;;;;;;;;;;;;4882820;29;19927;-91
2021/07/14 09:02:49;;;;;;;;;;;;;;;;;;4906684;29;19927;-91
2021/07/14 09:05:17;;;;;;;;;;;;;;;;;;4891828;29;19938;-92
2021/07/14 09:07:46;;;;;;;;;;;;;;;;;;4888294;29;20429;-91
2021/07/14 09:10:15;;;;;;;;;;;;;;;;;;4886373;29;20409;-89
2021/07/14 09:12:45;;;;;;;;;;;;;;;;;;4890550;29;19931;-91
2021/07/14 09:15:14;;;;;;;;;;;;;;;;;;4889120;29;19928;-91
2021/07/14 09:17:44;;;;;;;;;;;;;;;;;;4905810;29;19928;-90
2021/07/14 09:20:13;;;;;;;;;;;;;;;;;;4883126;29;19927;-90
2021/07/14 09:22:42;;;;;;;;;;;;;;;;;;4892166;29;19955;-90
2021/07/14 09:25:12;;;;;;;;;;;;;;;;;;4905980;29;20133;-89
2021/07/14 09:27:54;;;;;;;;;;;;;;;;;;4913218;28;19942;-90
2021/07/14 09:30:23;;;;;;;;;;;;;;;;;;4930286;28;19928;-89
2021/07/14 09:32:53;;;;;;;;;;;;;;;;;;4891546;29;19927;-88
2021/07/14 09:35:29;;;;;;;;;;;;;;;;;;4892331;29;19943;-89
2021/07/14 09:37:58;;;;;;;;;;;;;;;;;;4897640;29;19936;-88
2021/07/14 09:40:27;;;;;;;;;;;;;;;;;;4894267;29;19931;-89
2021/07/14 09:43:02;;;;;;;;;;;;;;;;;;4896783;29;20500;-90
2021/07/14 09:45:38;;;;;;;;;;;;;;;;;;4895935;29;19934;-89
2021/07/14 09:48:07;;;;;;;;;;;;;;;;;;4930055;29;20394;-89
2021/07/14 09:50:37;;;;;;;;;;;;;;;;;;4909613;29;19935;-88
2021/07/14 09:53:06;;;;;;;;;;;;;;;;;;4897877;29;20402;-88
2021/07/14 09:55:35;;;;;;;;;;;;;;;;;;4892411;29;20317;-89
2021/07/14 09:58:12;;;;;;;;;;;;;;;;;;4890534;29;19930;-90
2021/07/14 10:00:42;;;;;;;;;;;;;;;;;;4893888;29;19942;-88
2021/07/14 10:03:11;;;;;;;;;;;;;;;;;;4891445;29;19933;-88
2021/07/14 10:05:40;;;;;;;;;;;;;;;;;;4887957;29;19958;-88
2021/07/14 10:08:16;;;;;;;;;;;;;;;;;;4892176;29;19927;-89
2021/07/14 10:10:45;;;;;;;;;;;;;;;;;;4893337;29;19931;-88
2021/07/14 10:13:18;;;;;;;;;;;;;;;;;;4895462;29;19927;-88
2021/07/14 10:15:47;;;;;;;;;;;;;;;;;;4895170;29;19964;-88
2021/07/14 10:18:16;;;;;;;;;;;;;;;;;;4901620;29;19928;-88
2021/07/14 10:20:45;;;;;;;;;;;;;;;;;;4886676;29;19931;-88
2021/07/14 10:23:19;;;;;;;;;;;;;;;;;;4889047;29;19934;-89
2021/07/14 10:25:55;;;;;;;;;;;;;;;;;;4889303;29;20287;-89
2021/07/14 10:28:33;;;;;;;;;;;;;;;;;;4894740;29;20329;-88
2021/07/14 10:31:11;;;;;;;;;;;;;;;;;;4898155;29;19942;-90
2021/07/14 10:33:44;;;;;;;;;;;;;;;;;;4903263;29;20425;-89
2021/07/14 10:36:14;;;;;;;;;;;;;;;;;;4883033;29;19928;-89
2021/07/14 10:39:14;;;;;;;;;;;;;;;;;;4882693;29;19934;-89
2021/07/14 10:41:58;;;;;;;;;;;;;;;;;;4888493;29;19928;-86
2021/07/14 10:44:31;;;;;;;;;;;;;;;;;;4913125;29;20390;-87
2021/07/14 10:47:01;;;;;;;;;;;;;;;;;;4894424;29;19934;-87
2021/07/14 10:49:32;;;;;;;;;;;;;;;;;;4905100;29;19928;-87
2021/07/14 10:52:01;;;;;;;;;;;;;;;;;;4903052;29;19934;-89
2021/07/14 10:54:29;;;;;;;;;;;;;;;;;;4900582;29;19942;-88
2021/07/14 10:57:01;;;;;;;;;;;;;;;;;;4887237;29;20411;-89
2021/07/14 10:59:33;;;;;;;;;;;;;;;;;;4895195;29;19927;-88
2021/07/14 11:02:02;;;;;;;;;;;;;;;;;;4895923;29;19935;-88
2021/07/14 11:04:59;;;;;;;;;;;;;;;;;;4885760;29;19935;-88
2021/07/14 11:07:37;;;;;;;;;;;;;;;;;;4847155;29;19946;-88
2021/07/14 11:10:25;;;;;;;;;;;;;;;;;;4894747;29;19938;-88
2021/07/14 11:12:56;;;;;;;;;;;;;;;;;;4892404;29;19927;-88
2021/07/14 11:15:30;;;;;;;;;;;;;;;;;;4910638;29;19927;-89
2021/07/14 11:18:02;;;;;;;;;;;;;;;;;;4905411;29;19927;-89
2021/07/14 11:20:40;;;;;;;;;;;;;;;;;;4912403;29;19934;-88
2021/07/14 11:23:26;;;;;;;;;;;;;;;;;;4902357;29;19927;-88
2021/07/14 11:26:31;;;;;;;;;;;;;;;;;;4904446;29;19928;-88
2021/07/14 11:29:10;;;;;;;;;;;;;;;;;;4899717;29;19935;-89
2021/07/14 11:31:42;;;;;;;;;;;;;;;;;;4923473;29;20155;-88
2021/07/14 11:34:33;;;;;;;;;;;;;;;;;;4888963;29;19932;-88
2021/07/14 11:37:25;;;;;;;;;;;;;;;;;;4919109;29;19927;-88
2021/07/14 11:40:09;;;;;;;;;;;;;;;;;;4899693;29;19940;-88
2021/07/14 11:42:51;;;;;;;;;;;;;;;;;;4892653;29;19936;-89
2021/07/14 11:45:20;;;;;;;;;;;;;;;;;;4913749;29;19934;-88
2021/07/14 11:48:00;;;;;;;;;;;;;;;;;;4897821;29;19934;-88
2021/07/14 11:50:43;;;;;;;;;;;;;;;;;;4908630;29;19928;-89
2021/07/14 11:53:27;;;;;;;;;;;;;;;;;;4895919;29;20341;-89
2021/07/14 11:55:59;;;;;;;;;;;;;;;;;;4930663;29;19938;-88
2021/07/14 11:58:47;;;;;;;;;;;;;;;;;;4907091;29;19931;-88
2021/07/14 12:01:38;;;;;;;;;;;;;;;;;;4887900;29;19957;-88
2021/07/14 12:04:11;;;;;;;;;;;;;;;;;;4887714;29;20309;-88
2021/07/14 12:06:41;;;;;;;;;;;;;;;;;;4906143;29;20402;-88
2021/07/14 12:09:27;;;;;;;;;;;;;;;;;;4891248;29;19935;-89
2021/07/14 12:11:57;;;;;;;;;;;;;;;;;;4911691;29;19928;-89
2021/07/14 12:14:26;;;;;;;;;;;;;;;;;;4901948;29;20420;-88
2021/07/14 12:16:55;;;;;;;;;;;;;;;;;;4909567;29;19927;-88
2021/07/14 12:19:26;;;;;;;;;;;;;;;;;;4929652;29;20423;-88
2021/07/14 12:21:55;;;;;;;;;;;;;;;;;;4919348;29;19917;-87
2021/07/14 12:24:32;;;;;;;;;;;;;;;;;;4916485;29;19915;-87
2021/07/14 12:27:02;;;;;;;;;;;;;;;;;;4899917;29;19931;-87
2021/07/14 12:29:30;;;;;;;;;;;;;;;;;;4909344;29;19927;-87
2021/07/14 12:32:00;;;;;;;;;;;;;;;;;;4894629;29;19935;-87
2021/07/14 12:34:31;;;;;;;;;;;;;;;;;;4893294;29;20336;-86
2021/07/14 12:37:00;;;;;;;;;;;;;;;;;;4912350;29;19928;-87
2021/07/14 12:39:31;;;;;;;;;;;;;;;;;;4907921;29;19942;-88
2021/07/14 12:42:01;;;;;;;;;;;;;;;;;;4913388;29;20305;-87
2021/07/14 12:44:29;;;;;;;;;;;;;;;;;;4905286;29;19931;-88
2021/07/14 12:47:09;;;;;;;;;;;;;;;;;;4888504;29;19935;-88
2021/07/14 12:49:39;;;;;;;;;;;;;;;;;;4891468;29;19939;-87
2021/07/14 12:52:08;;;;;;;;;;;;;;;;;;4905594;29;19931;-88
2021/07/14 12:54:37;;;;;;;;;;;;;;;;;;4887114;29;19943;-88
2021/07/14 12:57:07;;;;;;;;;;;;;;;;;;4901025;29;19954;-88
2021/07/14 12:59:39;;;;;;;;;;;;;;;;;;4892034;29;19934;-86
2021/07/14 13:02:09;;;;;;;;;;;;;;;;;;4887378;29;19938;-83
2021/07/14 13:04:48;;;;;;;;;;;;;;;;;;4904397;29;20117;-88
2021/07/14 13:07:19;;;;;;;;;;;;;;;;;;4912492;29;19934;-86
2021/07/14 13:09:52;;;;;;;;;;;;;;;;;;4919063;28;19915;-87
2021/07/14 13:12:21;;;;;;;;;;;;;;;;;;4902637;29;19927;-87
2021/07/14 13:14:50;;;;;;;;;;;;;;;;;;4912853;29;19934;-87
2021/07/14 13:17:26;;;;;;;;;;;;;;;;;;4911694;29;19935;-87
2021/07/14 13:20:07;;;;;;;;;;;;;;;;;;4906139;29;19931;-87
2021/07/14 13:22:36;;;;;;;;;;;;;;;;;;4891353;29;19931;-86
2021/07/14 13:25:05;;;;;;;;;;;;;;;;;;4888041;29;19931;-88
2021/07/14 13:27:38;;;;;;;;;;;;;;;;;;4891295;29;20386;-87
2021/07/14 13:30:23;;;;;;;;;;;;;;;;;;4893215;29;20428;-87
2021/07/14 13:33:04;;;;;;;;;;;;;;;;;;4900989;29;19938;-87
2021/07/14 13:35:34;;;;;;;;;;;;;;;;;;4886825;29;19932;-87
2021/07/14 13:38:03;;;;;;;;;;;;;;;;;;4887265;29;19935;-86
2021/07/14 13:40:32;;;;;;;;;;;;;;;;;;4884701;29;19938;-87
2021/07/14 13:43:00;;;;;;;;;;;;;;;;;;4886217;29;19928;-87
2021/07/14 13:45:29;;;;;;;;;;;;;;;;;;4905458;29;19927;-88
2021/07/14 13:47:58;;;;;;;;;;;;;;;;;;4899081;29;19933;-87
2021/07/14 13:50:27;;;;;;;;;;;;;;;;;;4906489;29;19942;-87
2021/07/14 13:52:57;;;;;;;;;;;;;;;;;;4902615;29;20057;-86
2021/07/14 13:55:26;;;;;;;;;;;;;;;;;;4882708;29;19927;-86
2021/07/14 13:58:05;;;;;;;;;;;;;;;;;;4897682;29;19927;-86
2021/07/14 14:00:34;;;;;;;;;;;;;;;;;;4902835;29;19935;-86
2021/07/14 14:03:06;;;;;;;;;;;;;;;;;;4894151;29;19927;-84
2021/07/14 14:05:35;;;;;;;;;;;;;;;;;;4900751;29;20286;-85
2021/07/14 14:08:10;;;;;;;;;;;;;;;;;;4885882;29;19942;-85
2021/07/14 14:10:43;;;;;;;;;;;;;;;;;;4892594;29;20394;-85
2021/07/14 14:13:32;;;;;;;;;;;;;;;;;;4889768;29;19934;-85
2021/07/14 14:29:41;;;;;;;;;;;;;;;;;;;;;
2021/07/14 14:36:11;;;;;;;;;;;;;;;;;;4928432;29;20402;-88
2021/07/14 14:38:39;;;;;;;;;;;;;;;;;;4932168;29;19947;-88
2021/07/14 14:41:08;;;;;;;;;;;;;;;;;;4920474;29;19934;-89
2021/07/14 14:43:36;;;;;;;;;;;;;;;;;;4915275;29;19927;-90
2021/07/14 14:46:04;;;;;;;;;;;;;;;;;;4931518;29;19942;-90
2021/07/14 14:48:35;;;;;;;;;;;;;;;;;;4928258;29;19931;-90
2021/07/14 14:51:03;;;;;;;;;;;;;;;;;;4917509;28;19927;-88
2021/07/14 14:53:33;;;;;;;;;;;;;;;;;;4928777;29;19927;-89
2021/07/14 14:56:01;;;;;;;;;;;;;;;;;;4915959;29;19927;-89
2021/07/14 14:58:31;;;;;;;;;;;;;;;;;;4917182;29;19941;-90
2021/07/14 15:00:59;;;;;;;;;;;;;;;;;;4916601;29;19942;-89
2021/07/14 15:03:27;;;;;;;;;;;;;;;;;;4914318;29;19927;-88
2021/07/14 15:05:57;;;;;;;;;;;;;;;;;;4915981;29;19937;-89
2021/07/14 15:08:25;;;;;;;;;;;;;;;;;;4921482;29;19930;-88
2021/07/14 15:10:53;;;;;;;;;;;;;;;;;;4925914;28;19943;-88
2021/07/14 15:13:21;;;;;;;;;;;;;;;;;;4934727;28;19914;-86
2021/07/14 15:15:50;;;;;;;;;;;;;;;;;;4947543;28;19914;-86
2021/07/14 15:18:22;;;;;;;;;;;;;;;;;;4952907;28;19915;-87
2021/07/14 15:20:50;;;;;;;;;;;;;;;;;;4963945;28;19927;-87
2021/07/14 15:23:20;;;;;;;;;;;;;;;;;;4936574;28;19929;-87
2021/07/14 15:28:40;;;;;;;;;;;;;;;;;;4931962;28;19925;-87
2021/07/14 15:31:10;;;;;;;;;;;;;;;;;;4956383;28;19911;-87
2021/07/14 15:33:38;;;;;;;;;;;;;;;;;;4956093;28;19977;-88
2021/07/14 15:36:07;;;;;;;;;;;;;;;;;;4921192;29;20422;-88
2021/07/14 15:38:36;;;;;;;;;;;;;;;;;;4926064;29;19927;-88
2021/07/14 15:41:05;;;;;;;;;;;;;;;;;;4921288;29;19927;-89
2021/07/14 15:43:33;;;;;;;;;;;;;;;;;;4935782;29;19927;-88
2021/07/14 15:46:18;;;;;;;;;;;;;;;;;;4940165;28;20249;-86
2021/07/14 15:48:47;;;;;;;;;;;;;;;;;;4936742;28;19930;-85
2021/07/14 15:51:15;;;;;;;;;;;;;;;;;;4941208;28;19914;-86
2021/07/14 15:53:44;;;;;;;;;;;;;;;;;;4956372;28;19925;-86
2021/07/14 15:56:12;;;;;;;;;;;;;;;;;;4938810;28;19954;-86
2021/07/14 15:58:41;;;;;;;;;;;;;;;;;;4938091;28;19923;-87
2021/07/14 16:01:09;;;;;;;;;;;;;;;;;;4941938;28;19915;-87
2021/07/14 16:03:37;;;;;;;;;;;;;;;;;;4942814;28;19923;-89
2021/07/14 16:06:05;;;;;;;;;;;;;;;;;;4958032;28;19931;-89
2021/07/14 16:08:35;;;;;;;;;;;;;;;;;;4952288;28;19915;-90
2021/07/14 16:11:04;;;;;;;;;;;;;;;;;;4945406;28;19911;-88
2021/07/14 16:13:33;;;;;;;;;;;;;;;;;;4954895;28;19940;-88
2021/07/14 16:16:01;;;;;;;;;;;;;;;;;;4945044;28;19937;-89
2021/07/14 16:18:31;;;;;;;;;;;;;;;;;;4931510;28;19936;-90
2021/07/14 16:20:59;;;;;;;;;;;;;;;;;;4915680;29;19927;-91
2021/07/14 16:23:28;;;;;;;;;;;;;;;;;;4933215;29;19938;-88
2021/07/14 16:25:57;;;;;;;;;;;;;;;;;;4915312;29;19934;-90
2021/07/14 16:28:26;;;;;;;;;;;;;;;;;;4930134;29;20403;-89
2021/07/14 16:30:54;;;;;;;;;;;;;;;;;;4941855;28;19946;-89
2021/07/14 16:33:23;;;;;;;;;;;;;;;;;;4910473;28;19927;-90
2021/07/14 16:35:54;;;;;;;;;;;;;;;;;;4920026;29;19934;-92
2021/07/14 16:38:22;;;;;;;;;;;;;;;;;;4909211;29;19930;-91
2021/07/14 16:40:50;;;;;;;;;;;;;;;;;;4915472;29;19942;-92
2021/07/14 16:43:18;;;;;;;;;;;;;;;;;;4904044;29;19981;-92
2021/07/14 16:45:48;;;;;;;;;;;;;;;;;;4915007;29;20383;-90
2021/07/14 16:48:16;;;;;;;;;;;;;;;;;;4914219;29;19950;-91
2021/07/14 16:50:44;;;;;;;;;;;;;;;;;;4915097;29;20403;-92
2021/07/14 16:53:12;;;;;;;;;;;;;;;;;;4917065;29;19930;-90
2021/07/14 16:55:42;;;;;;;;;;;;;;;;;;4924717;29;19954;-91
2021/07/14 16:58:10;;;;;;;;;;;;;;;;;;4913980;29;20408;-92
2021/07/14 17:00:40;;;;;;;;;;;;;;;;;;4915647;29;19942;-92
2021/07/14 17:03:10;;;;;;;;;;;;;;;;;;4913989;29;19961;-92
2021/07/14 17:05:38;;;;;;;;;;;;;;;;;;4910432;29;20355;-92
2021/07/14 17:08:06;;;;;;;;;;;;;;;;;;4919463;29;19942;-92
2021/07/14 17:10:35;;;;;;;;;;;;;;;;;;4935052;29;19934;-93
2021/07/14 17:13:03;;;;;;;;;;;;;;;;;;4944522;29;19927;-91
2021/07/14 17:15:31;;;;;;;;;;;;;;;;;;4914311;29;19935;-92
2021/07/14 17:17:59;;;;;;;;;;;;;;;;;;4918434;28;19926;-92
2021/07/14 17:20:29;;;;;;;;;;;;;;;;;;4915296;29;19927;-91
2021/07/14 17:22:57;;;;;;;;;;;;;;;;;;4915201;29;20347;-91
2021/07/14 17:25:26;;;;;;;;;;;;;;;;;;4915870;29;20045;-92
2021/07/14 17:27:55;;;;;;;;;;;;;;;;;;4933167;29;19938;-93
2021/07/14 17:30:36;;;;;;;;;;;;;;;;;;5117759;27;20343;-88
2021/07/14 17:33:05;;;;;;;;;;;;;;;;;;5085907;28;19931;-89
2021/07/14 17:35:33;;;;;;;;;;;;;;;;;;5081954;28;19924;-86
2021/07/14 17:38:02;;;;;;;;;;;;;;;;;;5070233;28;19919;-88
2021/07/14 17:40:31;;;;;;;;;;;;;;;;;;5095140;28;19925;-86
2021/07/14 17:42:59;;;;;;;;;;;;;;;;;;5079363;28;19932;-89
2021/07/14 17:45:28;;;;;;;;;;;;;;;;;;5075059;28;19931;-87
2021/07/14 17:47:58;;;;;;;;;;;;;;;;;;5056558;28;19932;-87
2021/07/14 17:50:27;;;;;;;;;;;;;;;;;;5064124;28;19928;-87
2021/07/14 17:52:56;;;;;;;;;;;;;;;;;;5093252;28;19924;-87
2021/07/14 17:55:25;;;;;;;;;;;;;;;;;;5076862;28;19924;-84
2021/07/14 17:57:53;;;;;;;;;;;;;;;;;;5093934;28;20309;-85
2021/07/14 18:00:22;;;;;;;;;;;;;;;;;;5056415;28;19925;-86
2021/07/14 18:02:51;;;;;;;;;;;;;;;;;;5072615;28;19931;-85
2021/07/14 18:05:21;;;;;;;;;;;;;;;;;;5080985;28;19931;-89
2021/07/14 18:07:50;;;;;;;;;;;;;;;;;;5086851;28;20468;-85
2021/07/14 18:10:21;;;;;;;;;;;;;;;;;;5078006;28;20306;-90
2021/07/14 18:12:49;;;;;;;;;;;;;;;;;;5087112;28;19924;-85
2021/07/14 18:15:17;;;;;;;;;;;;;;;;;;5086123;28;19920;-86
2021/07/14 18:17:46;;;;;;;;;;;;;;;;;;5087908;28;19936;-87
2021/07/14 18:20:16;;;;;;;;;;;;;;;;;;5074985;28;20422;-84
2021/07/14 18:22:45;;;;;;;;;;;;;;;;;;5059419;28;19924;-87
2021/07/14 18:25:14;;;;;;;;;;;;;;;;;;5062014;28;20505;-87
2021/07/14 18:27:50;;;;;;;;;;;;;;;;;;5051941;28;19928;-85
2021/07/14 18:30:19;;;;;;;;;;;;;;;;;;5059321;28;20461;-84
2021/07/14 18:32:47;;;;;;;;;;;;;;;;;;5071404;28;19929;-83
2021/07/14 18:35:16;;;;;;;;;;;;;;;;;;5070267;28;20390;-81
2021/07/14 18:38:05;;;;;;;;;;;;;;;;;;5062075;28;19936;-81
2021/07/14 18:41:10;;;;;;;;;;;;;;;;;;5071657;28;19946;-82
2021/07/14 18:43:39;;;;;;;;;;;;;;;;;;5077140;28;19931;-82
2021/07/14 18:46:09;;;;;;;;;;;;;;;;;;5045067;28;20004;-85
2021/07/14 18:48:37;;;;;;;;;;;;;;;;;;5046309;28;19936;-80
2021/07/14 18:51:06;;;;;;;;;;;;;;;;;;5047697;28;19932;-80
2021/07/14 18:53:35;;;;;;;;;;;;;;;;;;5032259;28;19924;-83
2021/07/14 18:56:04;;;;;;;;;;;;;;;;;;5039122;28;19932;-79
2021/07/14 18:58:33;;;;;;;;;;;;;;;;;;5071863;28;19925;-80
2021/07/14 19:01:02;;;;;;;;;;;;;;;;;;5051807;28;19948;-80
2021/07/14 19:03:30;;;;;;;;;;;;;;;;;;5072245;28;19932;-80
2021/07/14 19:05:59;;;;;;;;;;;;;;;;;;5050660;28;19925;-79
2021/07/14 19:08:27;;;;;;;;;;;;;;;;;;5054399;28;19963;-81
2021/07/14 19:10:57;;;;;;;;;;;;;;;;;;5067773;28;19924;-83
2021/07/14 19:13:25;;;;;;;;;;;;;;;;;;5047446;28;19931;-85
2021/07/14 19:15:54;;;;;;;;;;;;;;;;;;5039158;28;19924;-83
2021/07/14 19:18:22;;;;;;;;;;;;;;;;;;5046990;28;19947;-83
2021/07/14 19:20:50;;;;;;;;;;;;;;;;;;5069876;28;19933;-83
2021/07/14 19:23:20;;;;;;;;;;;;;;;;;;5036087;28;19932;-84
2021/07/14 19:25:48;;;;;;;;;;;;;;;;;;5072408;28;19924;-84
2021/07/14 19:28:21;;;;;;;;;;;;;;;;;;5051167;28;19932;-82
2021/07/14 19:30:51;;;;;;;;;;;;;;;;;;5057453;28;20547;-81
2021/07/14 19:33:20;;;;;;;;;;;;;;;;;;5054734;28;19936;-80
2021/07/14 19:35:49;;;;;;;;;;;;;;;;;;5052572;28;19925;-84
2021/07/14 19:38:20;;;;;;;;;;;;;;;;;;5052380;28;19939;-83
2021/07/14 19:40:49;;;;;;;;;;;;;;;;;;5036535;28;20409;-82
2021/07/14 19:43:20;;;;;;;;;;;;;;;;;;5070401;28;19924;-86
2021/07/14 19:45:49;;;;;;;;;;;;;;;;;;5052765;28;19930;-83
2021/07/14 19:48:18;;;;;;;;;;;;;;;;;;5057650;28;19924;-82
2021/07/14 19:50:47;;;;;;;;;;;;;;;;;;5039670;28;19925;-84
2021/07/14 19:53:15;;;;;;;;;;;;;;;;;;5056312;28;19932;-84
2021/07/14 19:55:43;;;;;;;;;;;;;;;;;;5064291;28;19924;-84
2021/07/14 19:58:12;;;;;;;;;;;;;;;;;;5064090;28;20313;-83
2021/07/14 20:00:41;;;;;;;;;;;;;;;;;;5053196;28;19930;-87
2021/07/14 20:03:10;;;;;;;;;;;;;;;;;;5058807;28;19928;-83
2021/07/14 20:05:38;;;;;;;;;;;;;;;;;;5060857;28;19936;-82
2021/07/14 20:08:07;;;;;;;;;;;;;;;;;;5051478;28;19932;-84
2021/07/14 20:10:35;;;;;;;;;;;;;;;;;;5056276;28;19951;-84
2021/07/14 20:13:04;;;;;;;;;;;;;;;;;;5058764;28;19928;-85
2021/07/14 20:15:32;;;;;;;;;;;;;;;;;;5051214;28;19929;-84
2021/07/14 20:18:02;;;;;;;;;;;;;;;;;;5062299;28;19932;-85
2021/07/14 20:20:30;;;;;;;;;;;;;;;;;;5046326;28;19924;-83
2021/07/14 20:22:59;;;;;;;;;;;;;;;;;;5052253;28;19935;-85
2021/07/14 20:25:28;;;;;;;;;;;;;;;;;;5060473;28;19935;-86
2021/07/14 20:27:56;;;;;;;;;;;;;;;;;;5077809;28;19934;-87
2021/07/14 20:30:25;;;;;;;;;;;;;;;;;;5061741;28;19928;-84
2021/07/14 20:32:53;;;;;;;;;;;;;;;;;;5040734;28;19935;-87
2021/07/14 20:35:23;;;;;;;;;;;;;;;;;;5054321;28;19933;-87
2021/07/14 20:37:51;;;;;;;;;;;;;;;;;;5057539;28;19925;-85
2021/07/14 20:40:19;;;;;;;;;;;;;;;;;;5068193;28;19928;-83
2021/07/14 20:42:48;;;;;;;;;;;;;;;;;;5054511;28;19925;-84
2021/07/14 20:45:16;;;;;;;;;;;;;;;;;;5036540;28;19933;-82
2021/07/14 20:47:45;;;;;;;;;;;;;;;;;;5052507;28;19935;-88
2021/07/14 20:50:14;;;;;;;;;;;;;;;;;;5052051;28;19932;-89
2021/07/14 20:52:44;;;;;;;;;;;;;;;;;;5073296;28;19931;-85
2021/07/14 20:55:12;;;;;;;;;;;;;;;;;;5043324;28;19925;-86
2021/07/14 20:57:41;;;;;;;;;;;;;;;;;;5050730;28;19924;-85
2021/07/14 21:00:10;;;;;;;;;;;;;;;;;;5050377;28;19940;-88
2021/07/14 21:02:38;;;;;;;;;;;;;;;;;;5056467;28;20376;-86
2021/07/14 21:05:07;;;;;;;;;;;;;;;;;;5047511;28;19932;-87
2021/07/14 21:07:36;;;;;;;;;;;;;;;;;;5050853;28;19931;-87
2021/07/14 21:10:06;;;;;;;;;;;;;;;;;;5058049;28;19908;-89
2021/07/14 21:12:35;;;;;;;;;;;;;;;;;;5073158;28;19933;-87
2021/07/14 21:15:04;;;;;;;;;;;;;;;;;;5092188;28;20024;-87
2021/07/14 21:17:32;;;;;;;;;;;;;;;;;;5085855;28;19912;-88
2021/07/14 21:20:00;;;;;;;;;;;;;;;;;;5084315;28;19913;-88
2021/07/14 21:22:30;;;;;;;;;;;;;;;;;;5061994;28;19923;-89
2021/07/14 21:24:58;;;;;;;;;;;;;;;;;;5072850;28;19923;-88
2021/07/14 21:27:28;;;;;;;;;;;;;;;;;;5067515;28;19923;-89
2021/07/14 21:29:56;;;;;;;;;;;;;;;;;;5068122;28;19913;-89
2021/07/14 21:32:25;;;;;;;;;;;;;;;;;;5068684;28;19919;-87
2021/07/14 21:34:53;;;;;;;;;;;;;;;;;;5071938;28;19912;-88
2021/07/14 21:37:21;;;;;;;;;;;;;;;;;;5057147;28;19912;-88
2021/07/14 21:39:51;;;;;;;;;;;;;;;;;;5092710;28;19935;-89
2021/07/14 21:42:19;;;;;;;;;;;;;;;;;;5061243;28;20362;-88
2021/07/14 21:44:48;;;;;;;;;;;;;;;;;;5048065;28;19925;-88
2021/07/14 21:47:19;;;;;;;;;;;;;;;;;;5055099;28;19931;-89
2021/07/14 21:49:48;;;;;;;;;;;;;;;;;;5043862;28;19924;-87
2021/07/14 21:52:16;;;;;;;;;;;;;;;;;;5051599;28;20298;-89
2021/07/14 21:54:44;;;;;;;;;;;;;;;;;;5023815;28;20383;-89
2021/07/14 21:57:13;;;;;;;;;;;;;;;;;;5046744;28;19928;-88
2021/07/14 21:59:41;;;;;;;;;;;;;;;;;;5060886;28;19929;-89
2021/07/14 22:02:11;;;;;;;;;;;;;;;;;;5046884;28;19947;-90
2021/07/14 22:04:39;;;;;;;;;;;;;;;;;;5034805;28;19925;-90
2021/07/14 22:07:08;;;;;;;;;;;;;;;;;;5048504;28;19932;-89
2021/07/14 22:09:36;;;;;;;;;;;;;;;;;;5052290;28;19929;-90
2021/07/14 22:12:05;;;;;;;;;;;;;;;;;;5064552;28;19928;-89
2021/07/14 22:14:34;;;;;;;;;;;;;;;;;;5035584;28;20398;-89
2021/07/14 22:17:03;;;;;;;;;;;;;;;;;;5057668;28;20529;-90
2021/07/14 22:19:32;;;;;;;;;;;;;;;;;;5075978;28;19924;-90
2021/07/14 22:22:01;;;;;;;;;;;;;;;;;;5101429;28;19923;-90
2021/07/14 22:24:29;;;;;;;;;;;;;;;;;;5077855;28;19935;-88
2021/07/14 22:26:57;;;;;;;;;;;;;;;;;;5079043;28;19924;-88
2021/07/14 22:29:25;;;;;;;;;;;;;;;;;;5048370;28;19924;-86
2021/07/14 22:31:54;;;;;;;;;;;;;;;;;;5070342;28;20488;-87
2021/07/14 22:34:23;;;;;;;;;;;;;;;;;;5047129;28;19939;-86
2021/07/14 22:36:53;;;;;;;;;;;;;;;;;;5056733;28;19924;-87
2021/07/14 22:39:22;;;;;;;;;;;;;;;;;;5065057;28;19940;-86
2021/07/14 22:41:52;;;;;;;;;;;;;;;;;;5050754;28;19925;-86
2021/07/14 22:44:21;;;;;;;;;;;;;;;;;;5072075;28;20317;-87
2021/07/14 22:46:50;;;;;;;;;;;;;;;;;;5062319;28;19924;-88
2021/07/14 22:49:18;;;;;;;;;;;;;;;;;;5051456;28;19928;-88
2021/07/14 22:51:46;;;;;;;;;;;;;;;;;;5047663;28;19940;-88
2021/07/14 22:54:16;;;;;;;;;;;;;;;;;;5060943;28;20325;-86
2021/07/14 22:56:44;;;;;;;;;;;;;;;;;;5047610;28;19924;-82
2021/07/14 22:59:13;;;;;;;;;;;;;;;;;;5034834;28;19936;-87
2021/07/14 23:01:41;;;;;;;;;;;;;;;;;;5047357;28;19939;-88
2021/07/14 23:04:09;;;;;;;;;;;;;;;;;;5045531;28;20416;-88
2021/07/14 23:06:37;;;;;;;;;;;;;;;;;;5054350;28;20301;-87
2021/07/14 23:09:06;;;;;;;;;;;;;;;;;;5039926;28;20406;-86
2021/07/14 23:11:37;;;;;;;;;;;;;;;;;;5061660;28;19931;-89
2021/07/14 23:14:05;;;;;;;;;;;;;;;;;;5069698;28;19939;-87
2021/07/14 23:16:33;;;;;;;;;;;;;;;;;;5052553;28;20397;-88
2021/07/14 23:19:02;;;;;;;;;;;;;;;;;;5032608;28;19932;-86
2021/07/14 23:21:30;;;;;;;;;;;;;;;;;;5071469;28;19931;-87
2021/07/14 23:23:59;;;;;;;;;;;;;;;;;;5048414;28;19925;-86
2021/07/14 23:26:27;;;;;;;;;;;;;;;;;;5048220;28;19925;-86
2021/07/14 23:28:57;;;;;;;;;;;;;;;;;;5050860;28;19932;-86
2021/07/14 23:31:26;;;;;;;;;;;;;;;;;;5065617;28;19924;-86
2021/07/14 23:33:55;;;;;;;;;;;;;;;;;;5038242;28;19929;-89
2021/07/14 23:36:23;;;;;;;;;;;;;;;;;;5036264;28;20390;-86
2021/07/14 23:38:51;;;;;;;;;;;;;;;;;;5043826;28;19925;-88
2021/07/14 23:41:20;;;;;;;;;;;;;;;;;;5048269;28;20409;-86
2021/07/14 23:43:48;;;;;;;;;;;;;;;;;;5055419;28;19931;-86
2021/07/14 23:46:18;;;;;;;;;;;;;;;;;;5039825;28;20284;-88
2021/07/14 23:48:46;;;;;;;;;;;;;;;;;;5054458;28;19932;-87
2021/07/14 23:51:15;;;;;;;;;;;;;;;;;;5053354;28;19929;-87
2021/07/14 23:53:43;;;;;;;;;;;;;;;;;;5039936;28;20273;-88
2021/07/14 23:56:12;;;;;;;;;;;;;;;;;;5040824;28;20295;-88
2021/07/14 23:58:40;;;;;;;;;;;;;;;;;;5046289;28;20437;-87
